sensor_id;sensor_type;location;lat;lon;timestamp;pressure;altitude;pressure_sealevel;temperature;humidity
5595;BME280;1003;48.002;7.788;2023-09-12T00:01:04;98800.53;;;20.29;100.00
5595;BME280;1003;48.002;7.788;2023-09-12T00:03:33;98785.50;;;20.38;100.00
5595;BME280;1003;48.002;7.788;2023-09-12T00:06:02;98774.94;;;20.44;100.00
5595;BME280;1003;48.002;7.788;2023-09-12T00:08:30;98762.13;;;20.46;100.00
5595;BME280;1003;48.002;7.788;2023-09-12T00:11:02;98760.47;;;20.45;100.00
5595;BME280;1003;48.002;7.788;2023-09-12T00:13:30;98755.31;;;20.47;100.00
5595;BME280;1003;48.002;7.788;2023-09-12T00:15:58;98758.91;;;20.42;100.00
5595;BME280;1003;48.002;7.788;2023-09-12T00:18:26;98759.72;;;20.43;100.00
5595;BME280;1003;48.002;7.788;2023-09-12T00:20:53;98755.53;;;20.42;100.00
5595;BME280;1003;48.002;7.788;2023-09-12T00:23:22;98755.44;;;20.43;100.00
5595;BME280;1003;48.002;7.788;2023-09-12T00:25:51;98752.06;;;20.43;100.00
5595;BME280;1003;48.002;7.788;2023-09-12T00:28:18;98757.16;;;20.43;100.00
5595;BME280;1003;48.002;7.788;2023-09-12T00:30:45;98755.69;;;20.39;100.00
5595;BME280;1003;48.002;7.788;2023-09-12T00:33:13;98751.59;;;20.36;100.00
5595;BME280;1003;48.002;7.788;2023-09-12T00:35:40;98752.50;;;20.35;100.00
5595;BME280;1003;48.002;7.788;2023-09-12T00:38:08;98756.22;;;20.30;100.00
5595;BME280;1003;48.002;7.788;2023-09-12T00:40:35;98755.47;;;20.28;100.00
5595;BME280;1003;48.002;7.788;2023-09-12T00:43:04;98758.22;;;20.25;100.00
5595;BME280;1003;48.002;7.788;2023-09-12T00:45:32;98753.13;;;20.25;100.00
5595;BME280;1003;48.002;7.788;2023-09-12T00:48:01;98755.00;;;20.21;100.00
5595;BME280;1003;48.002;7.788;2023-09-12T00:50:30;98762.19;;;20.14;100.00
5595;BME280;1003;48.002;7.788;2023-09-12T00:52:59;98771.69;;;19.97;100.00
5595;BME280;1003;48.002;7.788;2023-09-12T00:55:28;98779.38;;;19.81;100.00
5595;BME280;1003;48.002;7.788;2023-09-12T00:57:56;98782.78;;;19.80;100.00
5595;BME280;1003;48.002;7.788;2023-09-12T01:00:24;98795.81;;;19.75;100.00
5595;BME280;1003;48.002;7.788;2023-09-12T01:02:52;98801.06;;;19.72;100.00
5595;BME280;1003;48.002;7.788;2023-09-12T01:05:22;98805.16;;;19.75;100.00
5595;BME280;1003;48.002;7.788;2023-09-12T01:07:49;98811.19;;;19.74;100.00
5595;BME280;1003;48.002;7.788;2023-09-12T01:10:16;98806.75;;;19.77;100.00
5595;BME280;1003;48.002;7.788;2023-09-12T01:12:44;98796.31;;;19.82;100.00
5595;BME280;1003;48.002;7.788;2023-09-12T01:15:11;98802.63;;;19.90;100.00
5595;BME280;1003;48.002;7.788;2023-09-12T01:17:43;98795.88;;;20.05;100.00
5595;BME280;1003;48.002;7.788;2023-09-12T01:20:16;98802.13;;;20.15;100.00
5595;BME280;1003;48.002;7.788;2023-09-12T01:22:59;98803.75;;;20.16;100.00
5595;BME280;1003;48.002;7.788;2023-09-12T01:26:10;98813.22;;;20.14;100.00
5595;BME280;1003;48.002;7.788;2023-09-12T01:28:45;98824.13;;;20.02;100.00
5595;BME280;1003;48.002;7.788;2023-09-12T01:31:16;98833.66;;;19.99;100.00
5595;BME280;1003;48.002;7.788;2023-09-12T01:33:44;98835.63;;;19.93;100.00
5595;BME280;1003;48.002;7.788;2023-09-12T01:36:11;98832.16;;;19.95;100.00
5595;BME280;1003;48.002;7.788;2023-09-12T01:38:38;98834.56;;;19.98;100.00
5595;BME280;1003;48.002;7.788;2023-09-12T01:41:06;98832.94;;;19.97;100.00
5595;BME280;1003;48.002;7.788;2023-09-12T01:43:37;98832.66;;;19.85;100.00
5595;BME280;1003;48.002;7.788;2023-09-12T01:46:07;98843.13;;;19.81;100.00
5595;BME280;1003;48.002;7.788;2023-09-12T01:48:36;98837.25;;;19.79;100.00
5595;BME280;1003;48.002;7.788;2023-09-12T01:51:05;98843.28;;;19.78;100.00
5595;BME280;1003;48.002;7.788;2023-09-12T01:53:34;98840.31;;;19.70;100.00
5595;BME280;1003;48.002;7.788;2023-09-12T01:56:03;98841.28;;;19.67;100.00
5595;BME280;1003;48.002;7.788;2023-09-12T01:58:31;98853.31;;;19.65;100.00
5595;BME280;1003;48.002;7.788;2023-09-12T02:00:58;98850.19;;;19.60;100.00
5595;BME280;1003;48.002;7.788;2023-09-12T02:03:27;98850.91;;;19.62;100.00
5595;BME280;1003;48.002;7.788;2023-09-12T02:05:54;98857.94;;;19.57;100.00
5595;BME280;1003;48.002;7.788;2023-09-12T02:08:21;98850.47;;;19.54;100.00
5595;BME280;1003;48.002;7.788;2023-09-12T02:10:48;98865.00;;;19.52;100.00
5595;BME280;1003;48.002;7.788;2023-09-12T02:13:15;98865.81;;;19.52;100.00
5595;BME280;1003;48.002;7.788;2023-09-12T02:15:42;98867.47;;;19.53;100.00
5595;BME280;1003;48.002;7.788;2023-09-12T02:18:09;98871.91;;;19.50;100.00
5595;BME280;1003;48.002;7.788;2023-09-12T02:20:40;98875.53;;;19.46;100.00
5595;BME280;1003;48.002;7.788;2023-09-12T02:23:11;98877.72;;;19.36;100.00
5595;BME280;1003;48.002;7.788;2023-09-12T02:25:38;98884.63;;;19.34;100.00
5595;BME280;1003;48.002;7.788;2023-09-12T02:28:05;98880.88;;;19.24;100.00
5595;BME280;1003;48.002;7.788;2023-09-12T02:30:32;98881.34;;;19.14;100.00
5595;BME280;1003;48.002;7.788;2023-09-12T02:32:59;98888.34;;;19.11;100.00
5595;BME280;1003;48.002;7.788;2023-09-12T02:35:27;98891.84;;;19.08;100.00
5595;BME280;1003;48.002;7.788;2023-09-12T02:37:56;98893.78;;;19.03;100.00
5595;BME280;1003;48.002;7.788;2023-09-12T02:40:23;98902.41;;;19.01;100.00
5595;BME280;1003;48.002;7.788;2023-09-12T02:42:51;98902.25;;;18.86;100.00
5595;BME280;1003;48.002;7.788;2023-09-12T02:45:18;98911.47;;;18.89;100.00
5595;BME280;1003;48.002;7.788;2023-09-12T02:47:45;98912.22;;;18.91;100.00
5595;BME280;1003;48.002;7.788;2023-09-12T02:50:12;98910.50;;;18.92;100.00
5595;BME280;1003;48.002;7.788;2023-09-12T02:52:39;98914.78;;;18.91;100.00
5595;BME280;1003;48.002;7.788;2023-09-12T02:55:08;98908.78;;;18.92;100.00
5595;BME280;1003;48.002;7.788;2023-09-12T02:57:36;98911.31;;;18.92;100.00
5595;BME280;1003;48.002;7.788;2023-09-12T03:00:05;98909.06;;;18.86;100.00
5595;BME280;1003;48.002;7.788;2023-09-12T03:02:34;98914.16;;;18.69;100.00
5595;BME280;1003;48.002;7.788;2023-09-12T03:05:02;98912.75;;;18.61;100.00
5595;BME280;1003;48.002;7.788;2023-09-12T03:07:29;98924.28;;;18.51;100.00
5595;BME280;1003;48.002;7.788;2023-09-12T03:09:57;98920.22;;;18.47;100.00
5595;BME280;1003;48.002;7.788;2023-09-12T03:12:25;98916.91;;;18.45;100.00
5595;BME280;1003;48.002;7.788;2023-09-12T03:14:52;98926.41;;;18.42;100.00
5595;BME280;1003;48.002;7.788;2023-09-12T03:17:20;98929.47;;;18.31;100.00
5595;BME280;1003;48.002;7.788;2023-09-12T03:19:47;98930.69;;;18.22;100.00
5595;BME280;1003;48.002;7.788;2023-09-12T03:22:14;98934.06;;;18.23;100.00
5595;BME280;1003;48.002;7.788;2023-09-12T03:24:41;98934.22;;;18.20;100.00
5595;BME280;1003;48.002;7.788;2023-09-12T03:27:08;98944.31;;;18.21;100.00
5595;BME280;1003;48.002;7.788;2023-09-12T03:29:36;98940.94;;;18.21;100.00
5595;BME280;1003;48.002;7.788;2023-09-12T03:32:03;98944.22;;;18.23;100.00
5595;BME280;1003;48.002;7.788;2023-09-12T03:34:30;98948.56;;;18.21;100.00
5595;BME280;1003;48.002;7.788;2023-09-12T03:36:57;98939.22;;;18.21;100.00
5595;BME280;1003;48.002;7.788;2023-09-12T03:39:25;98937.63;;;18.19;100.00
5595;BME280;1003;48.002;7.788;2023-09-12T03:41:52;98937.63;;;18.19;100.00
5595;BME280;1003;48.002;7.788;2023-09-12T03:44:18;98934.22;;;18.20;100.00
5595;BME280;1003;48.002;7.788;2023-09-12T03:46:47;98928.91;;;18.24;100.00
5595;BME280;1003;48.002;7.788;2023-09-12T03:49:14;98918.09;;;18.38;100.00
5595;BME280;1003;48.002;7.788;2023-09-12T03:51:41;98905.41;;;18.55;100.00
5595;BME280;1003;48.002;7.788;2023-09-12T03:54:08;98906.78;;;18.62;100.00
5595;BME280;1003;48.002;7.788;2023-09-12T03:56:35;98906.63;;;18.66;100.00
5595;BME280;1003;48.002;7.788;2023-09-12T03:59:02;98919.59;;;18.42;100.00
5595;BME280;1003;48.002;7.788;2023-09-12T04:01:29;98927.13;;;18.26;100.00
5595;BME280;1003;48.002;7.788;2023-09-12T04:03:57;98911.09;;;18.24;100.00
5595;BME280;1003;48.002;7.788;2023-09-12T04:06:24;98900.97;;;18.23;100.00
5595;BME280;1003;48.002;7.788;2023-09-12T04:08:51;98911.16;;;18.23;100.00
5595;BME280;1003;48.002;7.788;2023-09-12T04:11:18;98934.06;;;18.04;100.00
5595;BME280;1003;48.002;7.788;2023-09-12T04:13:45;98920.69;;;17.80;100.00
5595;BME280;1003;48.002;7.788;2023-09-12T04:16:12;98918.75;;;17.87;100.00
5595;BME280;1003;48.002;7.788;2023-09-12T04:18:40;98934.47;;;17.95;100.00
5595;BME280;1003;48.002;7.788;2023-09-12T04:21:08;98949.81;;;17.93;100.00
5595;BME280;1003;48.002;7.788;2023-09-12T04:23:35;98938.38;;;17.83;100.00
5595;BME280;1003;48.002;7.788;2023-09-12T04:26:02;98936.72;;;17.82;100.00
5595;BME280;1003;48.002;7.788;2023-09-12T04:28:29;98946.31;;;17.75;100.00
5595;BME280;1003;48.002;7.788;2023-09-12T04:31:02;98967.72;;;17.70;100.00
5595;BME280;1003;48.002;7.788;2023-09-12T04:33:29;98988.66;;;17.76;100.00
5595;BME280;1003;48.002;7.788;2023-09-12T04:35:58;98975.19;;;17.74;100.00
5595;BME280;1003;48.002;7.788;2023-09-12T04:38:27;98975.19;;;17.74;100.00
5595;BME280;1003;48.002;7.788;2023-09-12T04:40:55;98993.75;;;17.76;100.00
5595;BME280;1003;48.002;7.788;2023-09-12T04:43:23;99003.03;;;17.77;100.00
5595;BME280;1003;48.002;7.788;2023-09-12T04:45:50;99002.94;;;17.79;100.00
5595;BME280;1003;48.002;7.788;2023-09-12T04:48:17;99003.59;;;17.84;100.00
5595;BME280;1003;48.002;7.788;2023-09-12T04:50:44;98767.00;;;17.87;100.00
5595;BME280;1003;48.002;7.788;2023-09-12T04:53:11;98728.72;;;17.90;100.00
5595;BME280;1003;48.002;7.788;2023-09-12T04:55:40;98726.03;;;17.93;100.00
5595;BME280;1003;48.002;7.788;2023-09-12T04:58:07;98721.84;;;17.92;100.00
5595;BME280;1003;48.002;7.788;2023-09-12T05:00:34;98718.53;;;17.90;100.00
5595;BME280;1003;48.002;7.788;2023-09-12T05:03:02;98713.47;;;17.90;100.00
5595;BME280;1003;48.002;7.788;2023-09-12T05:05:30;98712.50;;;17.93;100.00
5595;BME280;1003;48.002;7.788;2023-09-12T05:07:57;98706.59;;;17.92;100.00
5595;BME280;1003;48.002;7.788;2023-09-12T05:10:24;98710.78;;;17.93;100.00
5595;BME280;1003;48.002;7.788;2023-09-12T05:12:53;98707.13;;;17.99;100.00
5595;BME280;1003;48.002;7.788;2023-09-12T05:15:20;98711.81;;;18.06;100.00
5595;BME280;1003;48.002;7.788;2023-09-12T05:17:47;98714.06;;;18.13;100.00
5595;BME280;1003;48.002;7.788;2023-09-12T05:20:14;98718.59;;;18.25;100.00
5595;BME280;1003;48.002;7.788;2023-09-12T05:22:41;98717.25;;;18.35;100.00
5595;BME280;1003;48.002;7.788;2023-09-12T05:25:08;98715.75;;;18.31;100.00
5595;BME280;1003;48.002;7.788;2023-09-12T05:27:35;98708.25;;;18.28;100.00
5595;BME280;1003;48.002;7.788;2023-09-12T05:30:05;98708.69;;;18.36;100.00
5595;BME280;1003;48.002;7.788;2023-09-12T05:32:33;98714.22;;;18.44;100.00
5595;BME280;1003;48.002;7.788;2023-09-12T05:35:00;98715.63;;;18.50;100.00
5595;BME280;1003;48.002;7.788;2023-09-12T05:37:27;98711.84;;;18.41;100.00
5595;BME280;1003;48.002;7.788;2023-09-12T05:39:54;98717.06;;;18.38;100.00
5595;BME280;1003;48.002;7.788;2023-09-12T05:42:21;98715.94;;;18.44;100.00
5595;BME280;1003;48.002;7.788;2023-09-12T05:44:48;98717.13;;;18.54;100.00
5595;BME280;1003;48.002;7.788;2023-09-12T05:47:20;98724.22;;;18.65;100.00
5595;BME280;1003;48.002;7.788;2023-09-12T05:49:47;98733.50;;;18.83;100.00
5595;BME280;1003;48.002;7.788;2023-09-12T05:52:15;98739.22;;;19.04;100.00
5595;BME280;1003;48.002;7.788;2023-09-12T05:54:42;98744.84;;;19.26;100.00
5595;BME280;1003;48.002;7.788;2023-09-12T05:57:10;98752.94;;;19.50;100.00
5595;BME280;1003;48.002;7.788;2023-09-12T05:59:38;98786.78;;;19.70;100.00
5595;BME280;1003;48.002;7.788;2023-09-12T06:02:06;98844.84;;;19.96;100.00
5595;BME280;1003;48.002;7.788;2023-09-12T06:04:36;98850.44;;;20.18;100.00
5595;BME280;1003;48.002;7.788;2023-09-12T06:07:04;98841.50;;;20.41;100.00
5595;BME280;1003;48.002;7.788;2023-09-12T06:09:31;98827.00;;;20.58;100.00
5595;BME280;1003;48.002;7.788;2023-09-12T06:11:58;98836.09;;;20.92;100.00
5595;BME280;1003;48.002;7.788;2023-09-12T06:14:25;98878.81;;;21.34;100.00
5595;BME280;1003;48.002;7.788;2023-09-12T06:16:52;98896.53;;;21.80;100.00
5595;BME280;1003;48.002;7.788;2023-09-12T06:19:19;98885.63;;;21.91;100.00
5595;BME280;1003;48.002;7.788;2023-09-12T06:21:48;98895.31;;;21.57;100.00
5595;BME280;1003;48.002;7.788;2023-09-12T06:24:19;98902.94;;;21.59;100.00
5595;BME280;1003;48.002;7.788;2023-09-12T06:26:47;98908.84;;;21.88;100.00
5595;BME280;1003;48.002;7.788;2023-09-12T06:29:14;98906.94;;;22.33;100.00
5595;BME280;1003;48.002;7.788;2023-09-12T06:31:41;98904.81;;;23.19;100.00
5595;BME280;1003;48.002;7.788;2023-09-12T06:34:09;98876.88;;;23.78;100.00
5595;BME280;1003;48.002;7.788;2023-09-12T06:36:38;98845.66;;;24.45;100.00
5595;BME280;1003;48.002;7.788;2023-09-12T06:39:09;98826.00;;;23.59;100.00
5595;BME280;1003;48.002;7.788;2023-09-12T06:41:36;98842.63;;;23.41;100.00
5595;BME280;1003;48.002;7.788;2023-09-12T06:44:03;98849.41;;;23.29;100.00
5595;BME280;1003;48.002;7.788;2023-09-12T06:46:32;98858.97;;;23.65;100.00
5595;BME280;1003;48.002;7.788;2023-09-12T06:49:01;98837.28;;;23.56;100.00
5595;BME280;1003;48.002;7.788;2023-09-12T06:51:29;98848.69;;;24.26;100.00
5595;BME280;1003;48.002;7.788;2023-09-12T06:53:56;98832.13;;;25.11;100.00
5595;BME280;1003;48.002;7.788;2023-09-12T06:56:24;98811.28;;;25.71;100.00
5595;BME280;1003;48.002;7.788;2023-09-12T06:58:52;98789.59;;;26.28;100.00
5595;BME280;1003;48.002;7.788;2023-09-12T07:01:21;98778.47;;;27.20;100.00
5595;BME280;1003;48.002;7.788;2023-09-12T07:03:48;98730.56;;;27.37;100.00
5595;BME280;1003;48.002;7.788;2023-09-12T07:06:19;98707.63;;;27.54;100.00
5595;BME280;1003;48.002;7.788;2023-09-12T07:08:46;98704.94;;;27.75;100.00
5595;BME280;1003;48.002;7.788;2023-09-12T07:11:14;98690.09;;;27.47;100.00
5595;BME280;1003;48.002;7.788;2023-09-12T07:13:42;98682.16;;;26.80;100.00
5595;BME280;1003;48.002;7.788;2023-09-12T07:16:11;98682.63;;;26.33;100.00
5595;BME280;1003;48.002;7.788;2023-09-12T07:18:38;98676.28;;;25.96;100.00
5595;BME280;1003;48.002;7.788;2023-09-12T07:21:06;98677.16;;;25.85;100.00
5595;BME280;1003;48.002;7.788;2023-09-12T07:23:33;98684.69;;;25.65;100.00
5595;BME280;1003;48.002;7.788;2023-09-12T07:26:01;98688.69;;;25.58;100.00
5595;BME280;1003;48.002;7.788;2023-09-12T07:28:30;98686.97;;;25.48;100.00
5595;BME280;1003;48.002;7.788;2023-09-12T07:30:59;98704.34;;;25.01;100.00
5595;BME280;1003;48.002;7.788;2023-09-12T07:33:26;98736.84;;;24.79;100.00
5595;BME280;1003;48.002;7.788;2023-09-12T07:35:53;98750.19;;;25.07;100.00
5595;BME280;1003;48.002;7.788;2023-09-12T07:38:21;98758.13;;;25.04;100.00
5595;BME280;1003;48.002;7.788;2023-09-12T07:40:48;98780.00;;;25.09;100.00
5595;BME280;1003;48.002;7.788;2023-09-12T07:43:15;98786.41;;;25.49;100.00
5595;BME280;1003;48.002;7.788;2023-09-12T07:45:42;98784.03;;;25.79;100.00
5595;BME280;1003;48.002;7.788;2023-09-12T07:48:11;98779.97;;;25.98;100.00
5595;BME280;1003;48.002;7.788;2023-09-12T07:50:38;98792.50;;;26.76;100.00
5595;BME280;1003;48.002;7.788;2023-09-12T07:53:05;98772.66;;;26.98;100.00
5595;BME280;1003;48.002;7.788;2023-09-12T07:55:36;98755.53;;;27.27;100.00
5595;BME280;1003;48.002;7.788;2023-09-12T07:58:11;98759.84;;;27.67;100.00
5595;BME280;1003;48.002;7.788;2023-09-12T08:00:38;98761.09;;;28.11;100.00
5595;BME280;1003;48.002;7.788;2023-09-12T08:03:05;98742.75;;;28.05;100.00
5595;BME280;1003;48.002;7.788;2023-09-12T08:05:33;98727.91;;;28.16;100.00
5595;BME280;1003;48.002;7.788;2023-09-12T08:08:00;98728.03;;;28.34;100.00
5595;BME280;1003;48.002;7.788;2023-09-12T08:10:27;98724.31;;;28.46;100.00
5595;BME280;1003;48.002;7.788;2023-09-12T08:12:55;98727.97;;;28.63;100.00
5595;BME280;1003;48.002;7.788;2023-09-12T08:15:22;98720.88;;;28.65;100.00
5595;BME280;1003;48.002;7.788;2023-09-12T08:17:49;98723.00;;;28.80;100.00
5595;BME280;1003;48.002;7.788;2023-09-12T08:20:18;98719.69;;;28.87;100.00
5595;BME280;1003;48.002;7.788;2023-09-12T08:22:46;98710.44;;;28.85;100.00
5595;BME280;1003;48.002;7.788;2023-09-12T08:25:14;98706.88;;;28.58;100.00
5595;BME280;1003;48.002;7.788;2023-09-12T08:27:41;98707.63;;;28.12;100.00
5595;BME280;1003;48.002;7.788;2023-09-12T08:30:11;98709.28;;;28.03;100.00
5595;BME280;1003;48.002;7.788;2023-09-12T08:32:39;98704.66;;;27.68;100.00
5595;BME280;1003;48.002;7.788;2023-09-12T08:35:10;98710.78;;;27.86;100.00
5595;BME280;1003;48.002;7.788;2023-09-12T08:37:38;98712.78;;;28.21;100.00
5595;BME280;1003;48.002;7.788;2023-09-12T08:40:09;98709.81;;;28.16;100.00
5595;BME280;1003;48.002;7.788;2023-09-12T08:42:40;98703.38;;;28.30;100.00
5595;BME280;1003;48.002;7.788;2023-09-12T08:45:12;98701.50;;;28.22;100.00
5595;BME280;1003;48.002;7.788;2023-09-12T08:47:42;98709.94;;;28.34;100.00
5595;BME280;1003;48.002;7.788;2023-09-12T08:50:13;98705.19;;;28.01;100.00
5595;BME280;1003;48.002;7.788;2023-09-12T08:52:41;98703.69;;;28.17;100.00
5595;BME280;1003;48.002;7.788;2023-09-12T08:55:11;98707.88;;;28.18;100.00
5595;BME280;1003;48.002;7.788;2023-09-12T08:57:50;98708.41;;;28.32;100.00
5595;BME280;1003;48.002;7.788;2023-09-12T09:00:18;98708.59;;;28.20;100.00
5595;BME280;1003;48.002;7.788;2023-09-12T09:02:48;98710.34;;;28.20;100.00
5595;BME280;1003;48.002;7.788;2023-09-12T09:05:17;98705.19;;;27.81;100.00
5595;BME280;1003;48.002;7.788;2023-09-12T09:07:48;98712.69;;;27.94;100.00
5595;BME280;1003;48.002;7.788;2023-09-12T09:10:18;98715.69;;;27.80;100.00
5595;BME280;1003;48.002;7.788;2023-09-12T09:12:47;98700.88;;;27.72;100.00
5595;BME280;1003;48.002;7.788;2023-09-12T09:15:21;98704.94;;;27.94;100.00
5595;BME280;1003;48.002;7.788;2023-09-12T09:17:49;98703.41;;;28.20;100.00
5595;BME280;1003;48.002;7.788;2023-09-12T09:20:27;98693.75;;;28.22;100.00
5595;BME280;1003;48.002;7.788;2023-09-12T09:23:03;98687.22;;;28.09;100.00
5595;BME280;1003;48.002;7.788;2023-09-12T09:25:34;98691.81;;;28.24;100.00
5595;BME280;1003;48.002;7.788;2023-09-12T09:28:04;98689.41;;;28.33;100.00
5595;BME280;1003;48.002;7.788;2023-09-12T09:30:43;98689.63;;;28.49;100.00
5595;BME280;1003;48.002;7.788;2023-09-12T09:33:11;98680.91;;;28.50;100.00
5595;BME280;1003;48.002;7.788;2023-09-12T09:35:41;98685.63;;;28.64;100.00
5595;BME280;1003;48.002;7.788;2023-09-12T09:38:09;98687.03;;;28.86;100.00
5595;BME280;1003;48.002;7.788;2023-09-12T09:40:44;98683.16;;;29.00;100.00
5595;BME280;1003;48.002;7.788;2023-09-12T09:43:11;98677.91;;;29.10;100.00
5595;BME280;1003;48.002;7.788;2023-09-12T09:45:44;98676.09;;;29.20;100.00
5595;BME280;1003;48.002;7.788;2023-09-12T09:48:19;98667.94;;;29.15;100.00
5595;BME280;1003;48.002;7.788;2023-09-12T09:50:46;98671.94;;;29.09;100.00
5595;BME280;1003;48.002;7.788;2023-09-12T09:53:13;98670.53;;;29.15;100.00
5595;BME280;1003;48.002;7.788;2023-09-12T09:55:40;98662.94;;;29.31;99.28
5595;BME280;1003;48.002;7.788;2023-09-12T09:58:14;98661.00;;;29.51;98.51
5595;BME280;1003;48.002;7.788;2023-09-12T10:00:43;98669.19;;;29.56;90.74
5595;BME280;1003;48.002;7.788;2023-09-12T10:03:11;98702.47;;;29.69;87.89
5595;BME280;1003;48.002;7.788;2023-09-12T10:05:41;98660.06;;;29.70;79.47
5595;BME280;1003;48.002;7.788;2023-09-12T10:08:11;98667.91;;;29.78;78.40
5595;BME280;1003;48.002;7.788;2023-09-12T10:10:43;98662.41;;;29.81;76.87
5595;BME280;1003;48.002;7.788;2023-09-12T10:13:13;98662.94;;;29.85;73.21
5595;BME280;1003;48.002;7.788;2023-09-12T10:15:44;98662.13;;;29.84;73.91
5595;BME280;1003;48.002;7.788;2023-09-12T10:18:19;98660.97;;;30.04;71.33
5595;BME280;1003;48.002;7.788;2023-09-12T10:20:55;98659.34;;;30.03;71.44
5595;BME280;1003;48.002;7.788;2023-09-12T10:23:34;98656.88;;;30.02;71.19
5595;BME280;1003;48.002;7.788;2023-09-12T10:26:10;98655.03;;;30.12;72.27
5595;BME280;1003;48.002;7.788;2023-09-12T10:28:41;98651.75;;;29.84;70.01
5595;BME280;1003;48.002;7.788;2023-09-12T10:31:11;98653.47;;;29.75;69.85
5595;BME280;1003;48.002;7.788;2023-09-12T10:33:39;98647.78;;;29.72;72.92
5595;BME280;1003;48.002;7.788;2023-09-12T10:36:09;98654.19;;;29.86;71.12
5595;BME280;1003;48.002;7.788;2023-09-12T10:38:42;98648.31;;;30.01;69.27
5595;BME280;1003;48.002;7.788;2023-09-12T10:41:12;98658.41;;;30.30;68.32
5595;BME280;1003;48.002;7.788;2023-09-12T10:43:43;98649.72;;;30.48;69.14
5595;BME280;1003;48.002;7.788;2023-09-12T10:46:12;98636.94;;;30.54;67.37
5595;BME280;1003;48.002;7.788;2023-09-12T10:48:39;98645.72;;;30.62;67.58
5595;BME280;1003;48.002;7.788;2023-09-12T10:51:08;98645.94;;;30.68;60.79
5595;BME280;1003;48.002;7.788;2023-09-12T10:53:36;98644.91;;;30.61;60.90
5595;BME280;1003;48.002;7.788;2023-09-12T10:56:17;98647.72;;;30.68;63.29
5595;BME280;1003;48.002;7.788;2023-09-12T10:59:12;98638.63;;;30.64;63.82
5595;BME280;1003;48.002;7.788;2023-09-12T11:01:42;98641.28;;;30.46;63.76
5595;BME280;1003;48.002;7.788;2023-09-12T11:04:33;98638.19;;;30.42;62.92
5595;BME280;1003;48.002;7.788;2023-09-12T11:07:34;98637.50;;;30.32;62.84
5595;BME280;1003;48.002;7.788;2023-09-12T11:10:20;98643.38;;;30.42;65.22
5595;BME280;1003;48.002;7.788;2023-09-12T11:12:49;98635.84;;;30.65;67.97
5595;BME280;1003;48.002;7.788;2023-09-12T11:15:20;98638.53;;;30.81;68.14
5595;BME280;1003;48.002;7.788;2023-09-12T11:17:49;98634.50;;;30.87;64.82
5595;BME280;1003;48.002;7.788;2023-09-12T11:20:17;98634.31;;;30.89;64.36
5595;BME280;1003;48.002;7.788;2023-09-12T11:22:45;98634.66;;;30.94;63.85
5595;BME280;1003;48.002;7.788;2023-09-12T11:25:18;98638.94;;;31.11;64.38
5595;BME280;1003;48.002;7.788;2023-09-12T11:28:02;98639.75;;;31.20;63.51
5595;BME280;1003;48.002;7.788;2023-09-12T11:30:31;98640.56;;;31.12;61.98
5595;BME280;1003;48.002;7.788;2023-09-12T11:33:03;98628.44;;;31.29;61.43
5595;BME280;1003;48.002;7.788;2023-09-12T11:35:37;98635.06;;;31.23;62.06
5595;BME280;1003;48.002;7.788;2023-09-12T11:38:10;98635.41;;;31.36;62.04
5595;BME280;1003;48.002;7.788;2023-09-12T11:40:44;98640.94;;;31.50;63.49
5595;BME280;1003;48.002;7.788;2023-09-12T11:43:21;98636.06;;;31.47;62.20
5595;BME280;1003;48.002;7.788;2023-09-12T11:45:51;98638.66;;;31.47;63.69
5595;BME280;1003;48.002;7.788;2023-09-12T11:48:19;98639.66;;;31.62;63.91
5595;BME280;1003;48.002;7.788;2023-09-12T11:50:52;98633.97;;;31.67;62.67
5595;BME280;1003;48.002;7.788;2023-09-12T11:53:21;98624.88;;;31.71;59.70
5595;BME280;1003;48.002;7.788;2023-09-12T11:55:54;98628.94;;;31.65;60.89
5595;BME280;1003;48.002;7.788;2023-09-12T11:58:22;98619.50;;;31.72;63.72
5595;BME280;1003;48.002;7.788;2023-09-12T12:00:52;98609.59;;;31.68;62.01
5595;BME280;1003;48.002;7.788;2023-09-12T12:03:22;98617.03;;;31.79;63.15
5595;BME280;1003;48.002;7.788;2023-09-12T12:05:50;98642.72;;;31.74;65.15
5595;BME280;1003;48.002;7.788;2023-09-12T12:08:18;98626.16;;;31.58;60.46
5595;BME280;1003;48.002;7.788;2023-09-12T12:10:49;98625.22;;;31.59;61.41
5595;BME280;1003;48.002;7.788;2023-09-12T12:13:18;98621.59;;;31.69;65.44
5595;BME280;1003;48.002;7.788;2023-09-12T12:15:45;98624.69;;;31.80;64.46
5595;BME280;1003;48.002;7.788;2023-09-12T12:18:14;98626.66;;;31.70;64.80
5595;BME280;1003;48.002;7.788;2023-09-12T12:20:41;98622.28;;;31.71;64.52
5595;BME280;1003;48.002;7.788;2023-09-12T12:23:08;98612.50;;;31.73;65.00
5595;BME280;1003;48.002;7.788;2023-09-12T12:25:36;98619.00;;;31.85;64.09
5595;BME280;1003;48.002;7.788;2023-09-12T12:28:04;98620.31;;;31.89;63.08
5595;BME280;1003;48.002;7.788;2023-09-12T12:30:33;98614.47;;;31.87;64.62
5595;BME280;1003;48.002;7.788;2023-09-12T12:33:06;98611.56;;;31.82;66.30
5595;BME280;1003;48.002;7.788;2023-09-12T12:35:34;98603.91;;;31.72;65.33
5595;BME280;1003;48.002;7.788;2023-09-12T12:38:03;98602.59;;;31.84;66.32
5595;BME280;1003;48.002;7.788;2023-09-12T12:40:30;98602.44;;;31.94;66.00
5595;BME280;1003;48.002;7.788;2023-09-12T12:42:57;98598.06;;;31.86;66.16
5595;BME280;1003;48.002;7.788;2023-09-12T12:45:24;98591.41;;;31.84;66.61
5595;BME280;1003;48.002;7.788;2023-09-12T12:47:58;98589.25;;;31.79;66.92
5595;BME280;1003;48.002;7.788;2023-09-12T12:50:26;98590.41;;;31.85;62.91
5595;BME280;1003;48.002;7.788;2023-09-12T12:52:54;98590.91;;;31.64;61.74
5595;BME280;1003;48.002;7.788;2023-09-12T12:55:25;98597.09;;;31.47;62.87
5595;BME280;1003;48.002;7.788;2023-09-12T12:57:52;98591.28;;;31.28;65.96
5595;BME280;1003;48.002;7.788;2023-09-12T13:00:20;98593.81;;;31.12;66.63
5595;BME280;1003;48.002;7.788;2023-09-12T13:02:48;98596.13;;;31.48;65.87
5595;BME280;1003;48.002;7.788;2023-09-12T13:05:25;98588.50;;;31.46;64.15
5595;BME280;1003;48.002;7.788;2023-09-12T13:07:54;98575.34;;;31.56;65.10
5595;BME280;1003;48.002;7.788;2023-09-12T13:10:22;98578.22;;;31.69;64.41
5595;BME280;1003;48.002;7.788;2023-09-12T13:12:49;98569.16;;;31.65;64.69
5595;BME280;1003;48.002;7.788;2023-09-12T13:15:17;98563.34;;;31.47;66.09
5595;BME280;1003;48.002;7.788;2023-09-12T13:17:45;98557.47;;;31.53;65.71
5595;BME280;1003;48.002;7.788;2023-09-12T13:20:14;98553.72;;;31.63;67.70
5595;BME280;1003;48.002;7.788;2023-09-12T13:22:41;98552.44;;;31.59;62.26
5595;BME280;1003;48.002;7.788;2023-09-12T13:25:11;98560.59;;;31.48;55.89